createdAt,value
2018-07-14T00:04:18.424Z,19.00
2018-07-14T00:09:11.703Z,19.10
2018-07-14T00:14:05.040Z,19.10
2018-07-14T00:18:58.283Z,19.10
2018-07-14T00:23:51.523Z,19.00
2018-07-14T00:28:45.032Z,18.80
2018-07-14T00:33:38.303Z,18.70
2018-07-14T00:38:31.586Z,18.60
2018-07-14T00:43:24.812Z,18.60
2018-07-14T00:48:18.122Z,18.50
2018-07-14T00:53:11.469Z,18.40
2018-07-14T00:58:04.816Z,18.30
2018-07-14T01:02:58.094Z,18.20
2018-07-14T01:07:51.596Z,18.10
2018-07-14T01:12:45.545Z,18.10
2018-07-14T01:22:31.956Z,17.90
2018-07-14T01:27:25.195Z,17.90
2018-07-14T01:32:18.476Z,17.80
2018-07-14T01:37:11.727Z,17.80
2018-07-14T01:42:04.955Z,17.80
2018-07-14T01:46:58.196Z,17.70
2018-07-14T01:51:51.872Z,17.70
2018-07-14T01:56:45.123Z,17.70
2018-07-14T02:01:38.337Z,17.80
2018-07-14T02:06:31.584Z,17.60
2018-07-14T02:11:24.909Z,17.60
2018-07-14T02:16:18.175Z,17.50
2018-07-14T02:21:11.439Z,17.50
2018-07-14T02:26:04.695Z,17.40
2018-07-14T02:30:57.945Z,17.40
2018-07-14T02:35:51.178Z,17.30
2018-07-14T02:40:44.435Z,17.20
2018-07-14T02:45:37.670Z,17.20
2018-07-14T02:55:24.048Z,17.10
2018-07-14T03:00:17.335Z,17.00
2018-07-14T03:05:10.598Z,17.00
2018-07-14T03:10:03.849Z,16.90
2018-07-14T03:14:57.096Z,16.90
2018-07-14T03:19:50.662Z,16.80
2018-07-14T03:24:43.959Z,16.80
2018-07-14T03:29:37.214Z,16.80
2018-07-14T03:34:30.447Z,16.70
2018-07-14T03:39:23.668Z,16.80
2018-07-14T03:44:16.999Z,16.80
2018-07-14T03:49:10.235Z,16.80
2018-07-14T03:54:03.756Z,16.90
2018-07-14T03:58:56.988Z,16.90
2018-07-14T04:03:50.314Z,17.00
2018-07-14T04:08:43.566Z,17.10
2018-07-14T04:13:36.811Z,17.20
2018-07-14T04:18:30.039Z,17.40
2018-07-14T04:23:23.358Z,17.50
2018-07-14T04:28:16.609Z,17.70
2018-07-14T04:33:09.822Z,17.90
2018-07-14T04:42:56.167Z,18.40
2018-07-14T04:52:42.538Z,19.00
2018-07-14T04:57:35.808Z,19.20
2018-07-14T05:02:29.085Z,19.80
2018-07-14T05:07:22.626Z,21.00
2018-07-14T05:12:15.866Z,21.80
2018-07-14T05:17:09.279Z,22.40
2018-07-14T05:26:56.987Z,22.60
2018-07-14T05:31:50.257Z,23.00
2018-07-14T05:36:43.548Z,23.80
2018-07-14T05:41:37.598Z,24.80
2018-07-14T05:46:32.051Z,25.70
2018-07-14T05:51:25.295Z,25.80
2018-07-14T06:01:11.964Z,26.80
2018-07-14T06:06:05.635Z,28.40
2018-07-14T06:10:58.863Z,30.00
2018-07-14T06:15:52.103Z,29.00
2018-07-14T06:20:45.396Z,29.40
2018-07-14T06:25:38.734Z,30.70
2018-07-14T06:35:25.929Z,31.30
2018-07-14T06:40:19.171Z,33.30
2018-07-14T06:50:05.831Z,32.40
2018-07-14T06:59:52.339Z,35.20
2018-07-14T07:04:45.624Z,35.90
2018-07-14T07:09:38.856Z,36.10
2018-07-14T07:14:32.566Z,36.30
2018-07-14T07:19:25.788Z,37.20
2018-07-14T07:24:19.017Z,37.40
2018-07-14T07:29:12.262Z,38.60
2018-07-14T07:34:05.953Z,37.60
2018-07-14T07:38:59.259Z,37.00
2018-07-14T07:43:52.667Z,38.00
2018-07-14T07:53:39.360Z,39.10
2018-07-14T07:58:32.579Z,39.20
2018-07-14T08:03:25.786Z,38.70
2018-07-14T08:08:19.005Z,38.80
2018-07-14T08:13:12.242Z,37.20
2018-07-14T08:18:05.526Z,38.10
2018-07-14T08:22:58.834Z,39.30
2018-07-14T08:27:52.008Z,38.90
2018-07-14T08:32:45.249Z,38.00
2018-07-14T08:37:38.467Z,38.50
2018-07-14T08:42:31.745Z,38.40
2018-07-14T08:47:24.985Z,37.40
2018-07-14T08:52:18.236Z,37.50
2018-07-14T08:57:11.468Z,37.60
2018-07-14T09:02:04.777Z,38.00
2018-07-14T09:06:57.995Z,38.60
2018-07-14T09:11:51.485Z,38.60
2018-07-14T09:16:44.754Z,38.40
2018-07-14T09:21:37.973Z,38.90
2018-07-14T09:26:31.249Z,38.60
2018-07-14T09:31:24.558Z,38.40
2018-07-14T09:36:17.808Z,38.30
2018-07-14T09:41:11.057Z,37.90
2018-07-14T09:50:57.458Z,37.50
2018-07-14T09:55:50.720Z,36.90
2018-07-14T10:00:49.591Z,37.20
2018-07-14T10:10:36.694Z,35.80
2018-07-14T10:15:29.915Z,35.70
2018-07-14T10:20:23.179Z,35.90
2018-07-14T10:25:16.565Z,35.60
2018-07-14T10:30:09.679Z,34.40
2018-07-14T10:35:02.968Z,33.50
2018-07-14T10:39:56.231Z,32.80
2018-07-14T10:44:49.470Z,32.30
2018-07-14T10:54:35.929Z,32.20
2018-07-14T10:59:29.426Z,31.90
2018-07-14T11:04:22.736Z,31.60
2018-07-14T11:09:15.932Z,32.00
2018-07-14T11:14:09.207Z,31.60
2018-07-14T11:23:55.637Z,32.00
2018-07-14T11:28:49.155Z,31.70
2018-07-14T11:38:35.803Z,30.70
2018-07-14T11:48:22.277Z,30.30
2018-07-14T11:53:15.677Z,29.90
2018-07-14T11:58:08.929Z,30.30
2018-07-14T12:03:02.207Z,30.00
2018-07-14T12:07:55.477Z,30.20
2018-07-14T12:12:48.765Z,30.20
2018-07-14T12:17:42.007Z,30.00
2018-07-14T12:27:28.453Z,30.60
2018-07-14T12:42:08.057Z,31.10
2018-07-14T12:47:01.367Z,31.30
2018-07-14T12:51:54.633Z,31.20
2018-07-14T13:01:40.995Z,31.60
2018-07-14T13:06:34.339Z,31.20
2018-07-14T13:11:27.549Z,31.20
2018-07-14T13:16:20.804Z,31.40
2018-07-14T13:21:14.165Z,31.50
2018-07-14T13:26:07.439Z,31.20
2018-07-14T13:31:00.705Z,30.60
2018-07-14T13:35:54.072Z,30.60
2018-07-14T13:40:47.325Z,30.60
2018-07-14T13:45:40.618Z,30.00
2018-07-14T13:50:34.863Z,30.20
2018-07-14T13:55:28.139Z,31.00
2018-07-14T14:10:07.710Z,31.60
2018-07-14T14:15:00.935Z,31.70
2018-07-14T14:19:54.264Z,31.50
2018-07-14T14:24:47.521Z,31.20
2018-07-14T14:29:40.737Z,30.70
2018-07-14T14:34:34.008Z,30.80
2018-07-14T14:39:27.724Z,30.70
2018-07-14T14:49:14.253Z,30.80
2018-07-14T14:59:00.660Z,30.30
2018-07-14T15:03:53.894Z,30.00
2018-07-14T15:08:47.134Z,29.90
2018-07-14T15:13:40.408Z,30.10
2018-07-14T15:18:33.692Z,29.90
2018-07-14T15:23:26.969Z,29.90
2018-07-14T15:33:13.444Z,30.00
2018-07-14T15:38:06.606Z,30.10
2018-07-14T15:42:59.898Z,30.10
2018-07-14T15:47:53.113Z,30.20
2018-07-14T15:52:46.389Z,30.20
2018-07-14T15:57:40.345Z,30.10
2018-07-14T16:02:33.556Z,30.00
2018-07-14T16:07:26.799Z,30.00
2018-07-14T16:12:20.053Z,30.00
2018-07-14T16:17:13.261Z,30.20
2018-07-14T16:22:06.909Z,30.40
2018-07-14T16:27:00.151Z,30.10
2018-07-14T16:31:53.382Z,29.60
2018-07-14T16:36:46.608Z,29.30
2018-07-14T16:46:33.533Z,28.90
2018-07-14T16:51:26.738Z,28.70
2018-07-14T17:01:13.271Z,28.40
2018-07-14T17:06:06.533Z,28.30
2018-07-14T17:11:00.714Z,28.30
2018-07-14T17:15:53.955Z,28.10
2018-07-14T17:20:47.325Z,27.90
2018-07-14T17:25:40.702Z,27.90
2018-07-14T17:35:27.131Z,27.80
2018-07-14T17:40:20.671Z,27.90
2018-07-14T17:45:13.973Z,27.80
2018-07-14T17:50:07.300Z,27.70
2018-07-14T17:55:00.603Z,27.50
2018-07-14T17:59:53.884Z,27.40
2018-07-14T18:04:47.093Z,27.20
2018-07-14T18:09:40.347Z,27.20
2018-07-14T18:14:33.592Z,27.10
2018-07-14T18:19:26.822Z,27.00
2018-07-14T18:29:13.339Z,26.70
2018-07-14T18:34:06.611Z,26.60
2018-07-14T18:38:59.950Z,26.40
2018-07-14T18:43:53.176Z,26.20
2018-07-14T18:53:40.196Z,26.00
2018-07-14T18:58:33.483Z,25.80
2018-07-14T19:03:27.043Z,25.70
2018-07-14T19:08:20.522Z,25.60
2018-07-14T19:13:13.731Z,25.50
2018-07-14T19:18:06.929Z,25.30
2018-07-14T19:23:00.180Z,25.20
2018-07-14T19:27:53.423Z,25.00
2018-07-14T19:32:46.631Z,24.90
2018-07-14T19:37:39.873Z,24.70
2018-07-14T19:42:33.072Z,24.60
2018-07-14T19:47:26.276Z,24.40
2018-07-14T19:52:19.560Z,24.20
2018-07-14T20:02:06.216Z,23.90
2018-07-14T20:06:59.448Z,23.80
2018-07-14T20:11:52.669Z,23.70
2018-07-14T20:16:45.923Z,23.60
2018-07-14T20:21:39.168Z,23.50
2018-07-14T20:26:32.401Z,23.40
2018-07-14T20:31:25.628Z,23.30
2018-07-14T20:36:18.849Z,23.10
2018-07-14T20:41:12.091Z,23.10
2018-07-14T20:46:05.391Z,22.90
2018-07-14T20:50:58.642Z,22.80
2018-07-14T20:55:51.894Z,22.70
2018-07-14T21:00:45.136Z,22.60
2018-07-14T21:05:38.415Z,22.60
2018-07-14T21:10:31.660Z,22.50
2018-07-14T21:15:24.897Z,22.30
2018-07-14T21:20:18.172Z,22.10
2018-07-14T21:25:11.455Z,22.00
2018-07-14T21:30:04.828Z,21.90
2018-07-14T21:34:58.040Z,21.90
2018-07-14T21:39:51.257Z,21.90
2018-07-14T21:44:44.677Z,21.80
2018-07-14T21:49:37.885Z,21.70
2018-07-14T21:54:31.107Z,21.70
2018-07-14T21:59:24.329Z,21.60
2018-07-14T22:04:17.658Z,21.60
2018-07-14T22:09:11.211Z,21.50
2018-07-14T22:14:04.754Z,21.30
2018-07-14T22:18:58.026Z,21.20
2018-07-14T22:23:51.338Z,21.20
2018-07-14T22:28:44.619Z,21.10
2018-07-14T22:33:37.859Z,21.00
2018-07-14T22:38:31.095Z,21.00
2018-07-14T22:43:24.309Z,20.80
2018-07-14T22:48:17.615Z,20.70
2018-07-14T22:53:10.802Z,20.60
2018-07-14T22:58:04.140Z,20.60
2018-07-14T23:02:57.381Z,20.50
2018-07-14T23:12:43.720Z,20.40
2018-07-14T23:17:36.966Z,20.30
2018-07-14T23:22:30.217Z,20.10
2018-07-14T23:27:23.994Z,20.00
2018-07-14T23:32:17.277Z,19.90
2018-07-14T23:37:10.508Z,19.90
2018-07-14T23:42:03.790Z,19.70
2018-07-14T23:51:50.192Z,19.40
2018-07-14T23:56:43.475Z,17.90
